Time;durP1;ratioP1;P1;durP2;ratioP2;P2;SDS_P1;SDS_P2;PMS_P1;PMS_P2;Temp;Humidity;BMP_temperature;BMP_pressure;BME280_temperature;BME280_humidity;BME280_pressure;Samples;Min_cycle;Max_cycle;Signal;HPM_P1;HPM_P2
2023/08/06 00:01:32;;;;;;;5.93;3.47;;;15.40;99.90;;;;;;5113742;28;20438;-52
2023/08/06 00:03:59;;;;;;;3.40;2.90;;;15.30;99.90;;;;;;5107389;28;20283;-53
2023/08/06 00:06:24;;;;;;;5.33;3.40;;;15.30;99.90;;;;;;5108354;28;20202;-54
2023/08/06 00:08:50;;;;;;;3.50;3.20;;;15.30;99.90;;;;;;5107806;28;20947;-54
2023/08/06 00:11:15;;;;;;;5.20;3.60;;;15.20;99.90;;;;;;5113665;28;20274;-54
2023/08/06 00:13:41;;;;;;;5.10;3.90;;;15.20;99.90;;;;;;5113091;28;20227;-54
2023/08/06 00:16:11;;;;;;;5.10;4.00;;;15.20;99.90;;;;;;5113658;28;20179;-54
2023/08/06 00:18:36;;;;;;;4.30;3.40;;;15.20;99.90;;;;;;5108057;28;20239;-53
2023/08/06 00:21:02;;;;;;;3.97;3.57;;;15.10;99.90;;;;;;5112620;28;20429;-53
2023/08/06 00:23:28;;;;;;;4.17;3.70;;;15.10;99.90;;;;;;5113174;28;20276;-54
2023/08/06 00:25:53;;;;;;;4.87;3.50;;;15.10;99.90;;;;;;5107991;28;20190;-53
2023/08/06 00:28:19;;;;;;;4.10;3.63;;;15.10;99.90;;;;;;5097218;28;20264;-53
2023/08/06 00:30:44;;;;;;;4.70;3.53;;;15.00;99.90;;;;;;5108280;28;20639;-53
2023/08/06 00:33:10;;;;;;;6.53;4.50;;;15.00;99.90;;;;;;5110900;28;20241;-53
2023/08/06 00:35:35;;;;;;;4.23;3.83;;;15.00;99.90;;;;;;5112758;28;20188;-52
2023/08/06 00:38:01;;;;;;;4.33;3.87;;;15.00;99.90;;;;;;5111255;28;20188;-53
2023/08/06 00:40:28;;;;;;;4.20;3.50;;;15.00;99.90;;;;;;5111796;28;20211;-52
2023/08/06 00:42:54;;;;;;;3.90;3.60;;;15.00;99.90;;;;;;5112491;28;20251;-51
2023/08/06 00:45:19;;;;;;;5.17;4.13;;;15.00;99.90;;;;;;5112803;28;20418;-52
2023/08/06 00:47:46;;;;;;;4.87;4.47;;;15.00;99.90;;;;;;5112652;28;20187;-53
2023/08/06 00:50:11;;;;;;;5.00;4.40;;;15.00;99.90;;;;;;5110229;28;20187;-54
2023/08/06 00:52:37;;;;;;;7.80;4.40;;;15.00;99.90;;;;;;5111925;28;20449;-52
2023/08/06 00:55:04;;;;;;;5.33;4.83;;;15.00;99.90;;;;;;5112000;28;20215;-52
2023/08/06 00:57:29;;;;;;;6.90;4.70;;;15.00;99.90;;;;;;5112131;28;20203;-54
2023/08/06 00:59:55;;;;;;;7.33;5.10;;;15.00;99.90;;;;;;5112347;28;20465;-53
2023/08/06 01:02:20;;;;;;;5.73;5.23;;;15.00;99.90;;;;;;5111868;28;20191;-52
2023/08/06 01:04:46;;;;;;;6.80;6.10;;;15.00;99.90;;;;;;5112128;28;20659;-52
2023/08/06 01:07:17;;;;;;;7.63;6.17;;;15.00;99.90;;;;;;5112388;28;20222;-52
2023/08/06 01:09:57;;;;;;;10.10;6.07;;;15.00;99.90;;;;;;5110764;28;20927;-52
2023/08/06 01:12:37;;;;;;;11.50;6.60;;;15.00;99.90;;;;;;5112937;28;20872;-52
2023/08/06 01:15:07;;;;;;;7.40;6.50;;;15.00;99.90;;;;;;5112320;28;20913;-53
2023/08/06 01:17:35;;;;;;;10.40;7.00;;;15.00;99.90;;;;;;5111669;28;20893;-53
2023/08/06 01:20:00;;;;;;;7.00;6.30;;;15.00;99.90;;;;;;5111573;28;20484;-53
2023/08/06 01:22:26;;;;;;;8.10;7.10;;;15.00;99.90;;;;;;5111620;28;20442;-53
2023/08/06 01:24:54;;;;;;;8.00;6.87;;;15.00;99.90;;;;;;5093892;28;20199;-54
2023/08/06 01:27:46;;;;;;;8.87;6.83;;;15.00;99.90;;;;;;5112102;28;20196;-52
2023/08/06 01:30:27;;;;;;;10.10;6.90;;;15.00;99.90;;;;;;5098789;28;20444;-52
2023/08/06 01:33:00;;;;;;;7.97;6.73;;;15.00;99.90;;;;;;5112070;28;20452;-52
2023/08/06 01:35:28;;;;;;;9.27;8.00;;;15.00;99.90;;;;;;5112919;28;20402;-52
2023/08/06 01:37:56;;;;;;;10.10;7.10;;;15.10;99.90;;;;;;5111552;28;20466;-51
2023/08/06 01:40:21;;;;;;;9.53;7.50;;;15.10;99.90;;;;;;5112054;28;20477;-53
2023/08/06 01:42:47;;;;;;;8.30;7.00;;;15.10;99.90;;;;;;5111658;28;20498;-53
2023/08/06 01:45:13;;;;;;;8.90;7.20;;;15.10;99.90;;;;;;5111924;28;20188;-52
2023/08/06 01:47:38;;;;;;;8.20;6.70;;;15.10;99.90;;;;;;5110808;28;20515;-51
2023/08/06 01:50:04;;;;;;;12.27;7.90;;;15.10;99.90;;;;;;5110812;28;20449;-52
2023/08/06 01:52:30;;;;;;;9.07;6.90;;;15.10;99.90;;;;;;5112001;28;20191;-52
2023/08/06 01:54:55;;;;;;;11.40;7.73;;;15.10;99.90;;;;;;5111892;28;20275;-52
2023/08/06 01:57:21;;;;;;;12.40;8.20;;;15.10;99.90;;;;;;5110734;28;20192;-52
2023/08/06 01:59:47;;;;;;;11.63;6.90;;;15.10;99.90;;;;;;5110747;28;20421;-51
2023/08/06 02:02:12;;;;;;;8.20;6.90;;;15.10;99.90;;;;;;5110324;28;20572;-52
2023/08/06 02:04:38;;;;;;;8.93;6.57;;;15.10;99.90;;;;;;5111438;28;20187;-52
2023/08/06 02:07:04;;;;;;;8.93;6.40;;;15.10;99.90;;;;;;5114384;28;20191;-52
2023/08/06 02:09:29;;;;;;;9.20;7.00;;;15.10;99.90;;;;;;5096533;28;20232;-52
2023/08/06 02:11:55;;;;;;;7.80;6.87;;;15.10;99.90;;;;;;5115296;28;20193;-52
2023/08/06 02:14:20;;;;;;;8.03;6.90;;;15.10;99.90;;;;;;5116084;28;20184;-52
2023/08/06 02:16:46;;;;;;;8.80;7.70;;;15.10;99.90;;;;;;5115313;28;20264;-52
2023/08/06 02:19:11;;;;;;;9.73;6.50;;;15.10;99.90;;;;;;5114227;28;20231;-52
2023/08/06 02:21:37;;;;;;;9.70;7.43;;;15.10;99.90;;;;;;5114539;28;20199;-51
2023/08/06 02:24:03;;;;;;;9.07;6.63;;;15.10;99.90;;;;;;5115682;28;20250;-54
2023/08/06 02:26:28;;;;;;;8.17;7.13;;;15.10;99.90;;;;;;5115435;28;20196;-52
2023/08/06 02:28:54;;;;;;;8.63;7.30;;;15.00;99.90;;;;;;5114703;28;20196;-51
2023/08/06 02:31:20;;;;;;;7.80;7.00;;;15.00;99.90;;;;;;5115202;28;20199;-51
2023/08/06 02:33:45;;;;;;;12.00;7.23;;;15.00;99.90;;;;;;5115418;28;20525;-51
2023/08/06 02:36:11;;;;;;;9.53;7.60;;;15.00;99.90;;;;;;5114662;28;20183;-52
2023/08/06 02:38:36;;;;;;;9.23;6.50;;;15.00;99.90;;;;;;5114912;28;20217;-52
2023/08/06 02:41:03;;;;;;;8.20;7.40;;;15.00;99.90;;;;;;5114347;28;20595;-52
2023/08/06 02:43:29;;;;;;;9.90;8.37;;;15.00;99.90;;;;;;5115221;28;20721;-52
2023/08/06 02:45:59;;;;;;;11.07;8.50;;;15.00;99.90;;;;;;5114349;28;20436;-51
2023/08/06 02:48:24;;;;;;;9.40;7.23;;;15.00;99.90;;;;;;5115033;28;20536;-51
2023/08/06 02:50:50;;;;;;;11.07;8.00;;;15.00;99.90;;;;;;5114337;28;20437;-51
2023/08/06 02:53:16;;;;;;;11.73;7.97;;;15.00;99.90;;;;;;5114396;28;20260;-51
2023/08/06 02:55:49;;;;;;;9.87;8.57;;;14.90;99.90;;;;;;5114736;28;20583;-52
2023/08/06 02:58:15;;;;;;;9.80;8.17;;;14.90;99.90;;;;;;5114062;28;20783;-51
2023/08/06 03:00:42;;;;;;;10.03;8.23;;;14.90;99.90;;;;;;5114128;28;20469;-51
2023/08/06 03:03:07;;;;;;;10.60;8.47;;;14.90;99.90;;;;;;5114147;28;20482;-52
2023/08/06 03:05:33;;;;;;;10.40;9.10;;;14.90;99.90;;;;;;5114585;28;20849;-51
2023/08/06 03:07:58;;;;;;;10.70;8.50;;;14.90;99.90;;;;;;5114184;28;20559;-51
2023/08/06 03:10:24;;;;;;;10.93;8.50;;;14.90;99.90;;;;;;5114275;28;20180;-51
2023/08/06 03:12:49;;;;;;;11.40;9.30;;;14.90;99.90;;;;;;5112987;28;20195;-51
2023/08/06 03:15:15;;;;;;;12.40;8.07;;;14.90;99.90;;;;;;5113049;28;20636;-53
2023/08/06 03:17:41;;;;;;;10.10;8.07;;;14.90;99.90;;;;;;5114349;28;20226;-53
2023/08/06 03:20:07;;;;;;;9.03;7.93;;;14.90;99.90;;;;;;5113944;28;20244;-52
2023/08/06 03:22:32;;;;;;;15.00;8.23;;;14.90;99.90;;;;;;5114199;28;20647;-52
2023/08/06 03:24:58;;;;;;;10.47;8.13;;;14.90;99.90;;;;;;5113211;28;20436;-50
2023/08/06 03:27:24;;;;;;;9.27;7.67;;;14.90;99.90;;;;;;5114153;28;20282;-51
2023/08/06 03:29:50;;;;;;;10.63;8.50;;;14.90;99.90;;;;;;5113058;28;20200;-51
2023/08/06 03:32:16;;;;;;;12.00;7.80;;;14.90;99.90;;;;;;5114233;28;20240;-51
2023/08/06 03:34:41;;;;;;;9.17;7.50;;;14.90;99.90;;;;;;5113612;28;20468;-51
2023/08/06 03:37:07;;;;;;;13.17;7.47;;;14.90;99.90;;;;;;5114365;28;20198;-51
2023/08/06 03:39:32;;;;;;;10.43;7.37;;;14.90;99.90;;;;;;5112956;28;20266;-52
2023/08/06 03:41:58;;;;;;;12.20;8.13;;;14.90;99.90;;;;;;5113394;28;20195;-51
2023/08/06 03:44:24;;;;;;;9.63;8.07;;;14.90;99.90;;;;;;5113189;28;20579;-52
2023/08/06 03:46:49;;;;;;;9.20;8.20;;;14.90;99.90;;;;;;5113970;28;20212;-50
2023/08/06 03:49:15;;;;;;;8.80;7.37;;;14.90;99.90;;;;;;5113122;28;20227;-50
2023/08/06 03:51:40;;;;;;;10.07;7.70;;;14.90;99.90;;;;;;5113332;28;20190;-51
2023/08/06 03:54:06;;;;;;;9.03;7.40;;;14.90;99.90;;;;;;5113424;28;20187;-51
2023/08/06 03:56:31;;;;;;;10.40;7.57;;;14.90;99.90;;;;;;5113887;28;20765;-52
2023/08/06 03:58:57;;;;;;;9.37;7.40;;;14.90;99.90;;;;;;5112804;28;20239;-51
2023/08/06 04:01:22;;;;;;;13.97;8.10;;;14.90;99.90;;;;;;5112965;28;20666;-52
2023/08/06 04:03:48;;;;;;;10.93;7.57;;;14.90;99.90;;;;;;5113754;28;20213;-52
2023/08/06 04:06:14;;;;;;;9.90;7.87;;;14.90;99.90;;;;;;5113885;28;20179;-51
2023/08/06 04:08:39;;;;;;;11.30;8.10;;;14.90;99.90;;;;;;5111844;28;20191;-52
2023/08/06 04:11:05;;;;;;;10.87;7.40;;;14.90;99.90;;;;;;5113664;28;20195;-52
2023/08/06 04:13:30;;;;;;;10.80;7.70;;;14.90;99.90;;;;;;5112465;28;20521;-55
2023/08/06 04:16:03;;;;;;;9.63;7.40;;;14.90;99.90;;;;;;5113623;28;20175;-52
2023/08/06 04:18:29;;;;;;;8.10;7.13;;;14.90;99.90;;;;;;5111691;28;20702;-52
2023/08/06 04:20:57;;;;;;;10.37;7.23;;;14.90;99.90;;;;;;5112969;28;20558;-51
2023/08/06 04:23:22;;;;;;;9.93;8.40;;;14.80;99.90;;;;;;5112712;28;20243;-52
2023/08/06 04:25:48;;;;;;;9.80;7.07;;;14.80;99.90;;;;;;5106096;28;20442;-51
2023/08/06 04:28:14;;;;;;;9.10;8.00;;;14.80;99.90;;;;;;5112327;28;20516;-51
2023/08/06 04:30:39;;;;;;;13.10;7.27;;;14.80;99.90;;;;;;5112697;28;20252;-52
2023/08/06 04:33:05;;;;;;;8.73;7.60;;;14.70;99.90;;;;;;5112919;28;20270;-52
2023/08/06 04:35:30;;;;;;;9.03;7.30;;;14.80;99.90;;;;;;5113463;28;20187;-55
2023/08/06 04:37:56;;;;;;;11.13;7.70;;;14.70;99.90;;;;;;5113029;28;20607;-51
2023/08/06 04:40:21;;;;;;;12.63;8.17;;;14.70;99.90;;;;;;5112041;28;20222;-52
2023/08/06 04:42:47;;;;;;;15.17;8.20;;;14.80;99.90;;;;;;5112056;28;20237;-51
2023/08/06 04:45:13;;;;;;;10.60;7.47;;;14.70;99.90;;;;;;5112049;28;20196;-51
2023/08/06 04:47:38;;;;;;;11.80;8.47;;;14.70;99.90;;;;;;5112140;28;20189;-52
2023/08/06 04:50:04;;;;;;;13.13;7.53;;;14.70;99.90;;;;;;5111630;28;20578;-51
2023/08/06 04:52:32;;;;;;;8.93;6.40;;;14.70;99.90;;;;;;5112063;28;20191;-52
2023/08/06 04:54:58;;;;;;;11.90;7.17;;;14.70;99.90;;;;;;5112784;28;20791;-52
2023/08/06 04:57:23;;;;;;;9.57;7.47;;;14.70;99.90;;;;;;5113075;28;20416;-53
2023/08/06 04:59:49;;;;;;;9.53;7.90;;;14.70;99.90;;;;;;5112085;28;20473;-52
2023/08/06 05:02:14;;;;;;;11.47;8.07;;;14.70;99.90;;;;;;5112506;28;20280;-52
2023/08/06 05:04:40;;;;;;;10.10;7.30;;;14.80;99.90;;;;;;5112257;28;20202;-52
2023/08/06 05:07:06;;;;;;;11.30;8.17;;;14.80;99.90;;;;;;5112932;28;20182;-52
2023/08/06 05:09:32;;;;;;;10.40;7.57;;;14.80;99.90;;;;;;5111245;28;20556;-54
2023/08/06 05:11:57;;;;;;;9.30;7.03;;;14.80;99.90;;;;;;5112836;28;20172;-51
2023/08/06 05:14:23;;;;;;;16.13;7.47;;;14.80;99.90;;;;;;5110818;28;20196;-52
2023/08/06 05:16:48;;;;;;;9.40;7.93;;;14.80;99.90;;;;;;5112769;28;20197;-52
2023/08/06 05:19:14;;;;;;;12.30;8.13;;;14.70;99.90;;;;;;5110815;28;20269;-52
2023/08/06 05:21:40;;;;;;;13.37;8.07;;;14.80;99.90;;;;;;5111733;28;20207;-52
2023/08/06 05:24:05;;;;;;;12.30;8.30;;;14.80;99.90;;;;;;5112744;28;20278;-53
2023/08/06 05:26:31;;;;;;;11.27;7.77;;;14.80;99.90;;;;;;5112195;28;20179;-52
2023/08/06 05:28:56;;;;;;;14.10;7.93;;;14.80;99.90;;;;;;5112486;28;20669;-52
2023/08/06 05:31:22;;;;;;;10.83;7.77;;;14.80;99.90;;;;;;5110218;28;20192;-52
2023/08/06 05:33:47;;;;;;;11.73;7.90;;;14.90;99.90;;;;;;5112389;28;20660;-52
2023/08/06 05:36:13;;;;;;;9.50;7.70;;;14.90;99.90;;;;;;5112021;28;20193;-53
2023/08/06 05:38:39;;;;;;;9.77;8.23;;;15.00;99.90;;;;;;5112544;28;20241;-52
2023/08/06 05:41:04;;;;;;;14.93;9.10;;;15.00;99.90;;;;;;5112811;28;20182;-52
2023/08/06 05:43:30;;;;;;;11.43;8.70;;;15.10;99.90;;;;;;5115750;28;20269;-52
2023/08/06 05:45:56;;;;;;;17.70;8.67;;;15.10;99.90;;;;;;5116443;28;20181;-52
2023/08/06 05:48:24;;;;;;;10.53;7.10;;;15.20;99.90;;;;;;5116672;28;20266;-52
2023/08/06 05:50:50;;;;;;;11.67;8.47;;;15.20;99.90;;;;;;5115871;28;20448;-51
2023/08/06 05:53:16;;;;;;;12.13;7.97;;;15.20;99.90;;;;;;5115622;28;20917;-51
2023/08/06 05:55:41;;;;;;;30.77;10.07;;;15.30;99.90;;;;;;5116441;28;20496;-52
2023/08/06 05:58:07;;;;;;;13.80;9.40;;;15.30;99.90;;;;;;5114627;28;20534;-52
2023/08/06 06:00:32;;;;;;;11.37;8.70;;;15.30;99.90;;;;;;5114859;28;20219;-54
2023/08/06 06:02:58;;;;;;;13.57;9.23;;;15.40;99.90;;;;;;5116063;28;20183;-52
2023/08/06 06:05:23;;;;;;;11.77;8.13;;;15.40;99.90;;;;;;5116285;28;20610;-53
2023/08/06 06:07:49;;;;;;;13.87;7.63;;;15.40;99.90;;;;;;5115715;28;20207;-52
2023/08/06 06:10:15;;;;;;;15.10;8.20;;;15.40;99.90;;;;;;5114118;28;20246;-53
2023/08/06 06:12:40;;;;;;;14.50;8.00;;;15.40;99.90;;;;;;5114969;28;20193;-52
2023/08/06 06:15:06;;;;;;;14.00;8.50;;;15.40;99.90;;;;;;5115741;28;20188;-53
2023/08/06 06:17:32;;;;;;;14.90;8.40;;;15.40;99.90;;;;;;5114715;28;20176;-53
2023/08/06 06:19:57;;;;;;;12.60;9.13;;;15.40;99.90;;;;;;5112787;28;20495;-52
2023/08/06 06:22:23;;;;;;;9.87;8.03;;;15.40;99.90;;;;;;5114698;28;20241;-53
2023/08/06 06:24:48;;;;;;;14.80;8.47;;;15.40;99.90;;;;;;5113918;28;20341;-52
2023/08/06 06:27:14;;;;;;;13.17;9.03;;;15.50;99.90;;;;;;5115314;28;20181;-53
2023/08/06 06:29:40;;;;;;;12.80;8.27;;;15.50;99.90;;;;;;5115130;28;20192;-52
2023/08/06 06:32:05;;;;;;;14.20;8.40;;;15.50;99.90;;;;;;5114067;28;20599;-54
2023/08/06 06:34:31;;;;;;;19.33;8.83;;;15.60;99.90;;;;;;5115002;28;20194;-52
2023/08/06 06:36:57;;;;;;;17.23;9.13;;;15.70;99.90;;;;;;5114243;28;20199;-54
2023/08/06 06:39:22;;;;;;;14.43;9.10;;;15.70;99.90;;;;;;5111173;28;20243;-53
2023/08/06 06:41:48;;;;;;;14.17;9.17;;;15.80;99.90;;;;;;5114125;28;20301;-52
2023/08/06 06:44:14;;;;;;;13.50;9.17;;;15.80;99.90;;;;;;5115081;28;20232;-54
2023/08/06 06:46:40;;;;;;;14.13;8.80;;;15.80;99.90;;;;;;5113984;28;20564;-54
2023/08/06 06:49:06;;;;;;;14.43;8.87;;;15.90;99.90;;;;;;5113693;28;20469;-53
2023/08/06 06:51:31;;;;;;;10.43;8.20;;;15.90;99.90;;;;;;5114543;28;20194;-52
2023/08/06 06:53:57;;;;;;;11.83;8.83;;;16.00;99.90;;;;;;5113097;28;20652;-52
2023/08/06 06:56:23;;;;;;;13.97;8.67;;;16.10;99.90;;;;;;5114615;28;20203;-53
2023/08/06 06:58:48;;;;;;;15.03;10.00;;;16.20;99.90;;;;;;5112172;28;20188;-53
2023/08/06 07:01:14;;;;;;;21.70;9.53;;;16.30;99.90;;;;;;5106621;28;20683;-53
2023/08/06 07:03:40;;;;;;;15.20;9.40;;;16.40;99.90;;;;;;5114611;28;20192;-54
2023/08/06 07:06:06;;;;;;;12.93;8.73;;;16.50;99.90;;;;;;5113304;28;20191;-54
2023/08/06 07:08:32;;;;;;;13.13;8.90;;;16.50;99.90;;;;;;5113672;28;20185;-53
2023/08/06 07:11:05;;;;;;;16.03;9.10;;;16.50;99.90;;;;;;5113873;28;20497;-53
2023/08/06 07:13:31;;;;;;;10.90;8.70;;;16.60;99.90;;;;;;5113428;28;20226;-53
2023/08/06 07:15:57;;;;;;;13.23;9.73;;;16.70;99.90;;;;;;5114043;28;20426;-53
2023/08/06 07:18:23;;;;;;;11.67;8.77;;;16.80;99.90;;;;;;5113725;28;20479;-54
2023/08/06 07:20:52;;;;;;;15.37;9.57;;;17.00;99.90;;;;;;5113324;28;20221;-53
2023/08/06 07:23:22;;;;;;;16.80;9.90;;;17.10;99.90;;;;;;5100128;28;20476;-53
2023/08/06 07:25:48;;;;;;;15.80;8.57;;;17.30;99.90;;;;;;5113922;28;20443;-54
2023/08/06 07:28:14;;;;;;;14.10;8.63;;;17.40;99.90;;;;;;5114335;28;20482;-53
2023/08/06 07:30:41;;;;;;;11.23;8.40;;;17.40;99.90;;;;;;5113709;28;20323;-53
2023/08/06 07:33:07;;;;;;;15.03;9.27;;;17.60;99.90;;;;;;5113896;28;20441;-53
2023/08/06 07:35:33;;;;;;;13.20;8.03;;;17.80;99.90;;;;;;5113636;28;20446;-52
2023/08/06 07:37:58;;;;;;;12.57;8.33;;;18.10;99.90;;;;;;5111769;28;20642;-53
2023/08/06 07:40:24;;;;;;;13.90;7.70;;;18.20;99.90;;;;;;5113423;28;20473;-52
2023/08/06 07:42:50;;;;;;;9.03;7.90;;;18.30;1.00;;;;;;5102160;28;20310;-53
2023/08/06 07:45:15;;;;;;;11.70;8.07;;;18.50;1.00;;;;;;5113853;28;20243;-53
2023/08/06 07:47:42;;;;;;;13.20;8.17;;;18.60;1.00;;;;;;5113911;28;20190;-52
2023/08/06 07:50:08;;;;;;;11.73;7.63;;;18.70;1.00;;;;;;5112614;28;20702;-53
2023/08/06 07:52:34;;;;;;;11.53;7.90;;;18.70;99.90;;;;;;5113050;28;20530;-53
2023/08/06 07:55:01;;;;;;;9.33;7.27;;;18.80;99.90;;;;;;5113972;28;21019;-52
2023/08/06 07:57:27;;;;;;;14.47;8.50;;;18.90;99.90;;;;;;5113298;28;20600;-53
2023/08/06 07:59:53;;;;;;;11.93;8.20;;;18.90;1.00;;;;;;5112959;28;20476;-53
2023/08/06 08:02:19;;;;;;;13.03;8.20;;;18.90;1.00;;;;;;5112436;28;20242;-53
2023/08/06 08:04:47;;;;;;;8.73;7.43;;;18.90;1.00;;;;;;5112289;28;20487;-53
2023/08/06 08:07:12;;;;;;;11.63;8.77;;;18.80;1.00;;;;;;5110939;28;20448;-53
2023/08/06 08:09:38;;;;;;;10.30;7.23;;;18.80;1.00;;;;;;5111995;28;20485;-52
2023/08/06 08:12:04;;;;;;;14.07;8.73;;;18.70;1.00;;;;;;5113291;28;20190;-52
2023/08/06 08:14:35;;;;;;;13.93;7.97;;;18.70;1.00;;;;;;5113827;28;20246;-52
2023/08/06 08:17:02;;;;;;;13.80;8.67;;;18.80;1.00;;;;;;5114105;28;20205;-52
2023/08/06 08:19:28;;;;;;;11.03;8.17;;;18.80;1.00;;;;;;5113618;28;20535;-52
2023/08/06 08:21:54;;;;;;;10.80;8.60;;;18.80;1.00;;;;;;5113683;28;20412;-52
2023/08/06 08:24:23;;;;;;;16.83;7.57;;;18.90;1.00;;;;;;5113646;28;20419;-52
2023/08/06 08:26:49;;;;;;;9.97;7.90;;;19.00;1.00;;;;;;5095684;28;20467;-52
2023/08/06 08:29:15;;;;;;;12.20;7.70;;;19.10;99.90;;;;;;5113557;28;20416;-52
2023/08/06 08:31:40;;;;;;;13.47;8.00;;;19.10;99.90;;;;;;5113426;28;20759;-52
2023/08/06 08:34:06;;;;;;;12.20;8.10;;;19.10;99.90;;;;;;5113532;28;20183;-52
2023/08/06 08:36:32;;;;;;;14.13;9.47;;;19.10;99.90;;;;;;5113721;28;20322;-52
2023/08/06 08:38:58;;;;;;;15.83;9.20;;;19.20;1.00;;;;;;5112969;28;20179;-53
2023/08/06 08:41:23;;;;;;;10.20;8.23;;;19.30;1.00;;;;;;5112908;28;20173;-52
2023/08/06 08:43:53;;;;;;;10.60;8.53;;;19.40;1.00;;;;;;5113134;28;20420;-52
2023/08/06 08:46:19;;;;;;;12.00;8.43;;;19.40;1.00;;;;;;5113321;28;20180;-52
2023/08/06 08:48:46;;;;;;;14.63;7.80;;;19.30;99.90;;;;;;5112874;28;20421;-52
2023/08/06 08:51:12;;;;;;;9.20;7.30;;;19.40;99.90;;;;;;5113309;28;20994;-52
2023/08/06 08:53:39;;;;;;;9.20;8.00;;;19.40;1.00;;;;;;5113161;28;20415;-51
2023/08/06 08:56:05;;;;;;;8.70;7.63;;;19.40;99.90;;;;;;5113377;28;20475;-51
2023/08/06 08:58:32;;;;;;;9.87;7.50;;;19.40;99.90;;;;;;5113747;28;20414;-52
2023/08/06 09:00:58;;;;;;;11.73;7.50;;;19.40;99.90;;;;;;5112727;28;20530;-52
2023/08/06 09:03:24;;;;;;;12.97;7.90;;;19.40;1.00;;;;;;5113027;28;20423;-52
2023/08/06 09:05:54;;;;;;;9.00;7.60;;;19.40;99.90;;;;;;5112982;28;20272;-52
2023/08/06 09:08:27;;;;;;;12.13;8.03;;;19.40;99.90;;;;;;5110272;28;20937;-52
2023/08/06 09:10:54;;;;;;;9.57;7.43;;;19.40;93.20;;;;;;5112971;28;20760;-52
2023/08/06 09:13:21;;;;;;;13.87;8.20;;;19.40;1.00;;;;;;5110854;28;20436;-52
2023/08/06 09:15:46;;;;;;;16.33;11.50;;;19.40;21.20;;;;;;5112367;28;20467;-52
2023/08/06 09:18:12;;;;;;;10.07;8.00;;;19.40;99.90;;;;;;5112569;28;20802;-53
2023/08/06 09:20:39;;;;;;;9.97;7.80;;;19.40;99.90;;;;;;5112673;28;20245;-51
2023/08/06 09:23:10;;;;;;;14.40;8.77;;;19.40;99.90;;;;;;5112512;28;20434;-52
2023/08/06 09:25:39;;;;;;;10.47;8.37;;;19.40;99.90;;;;;;5104187;28;20440;-52
2023/08/06 09:28:05;;;;;;;14.03;8.60;;;19.30;29.00;;;;;;5100618;28;20426;-52
2023/08/06 09:30:33;;;;;;;15.73;8.80;;;19.20;99.90;;;;;;5101571;28;20444;-52
2023/08/06 09:32:59;;;;;;;11.33;8.60;;;19.20;99.90;;;;;;5104276;28;20537;-52
2023/08/06 09:35:29;;;;;;;13.57;8.50;;;19.10;99.90;;;;;;5103607;28;20417;-52
2023/08/06 09:37:55;;;;;;;9.10;8.10;;;19.00;79.20;;;;;;5104590;28;20940;-52
2023/08/06 09:40:31;;;;;;;9.10;8.13;;;19.00;18.20;;;;;;5099105;28;20583;-52
2023/08/06 09:42:58;;;;;;;10.63;7.80;;;19.00;99.90;;;;;;5100786;28;20184;-52
2023/08/06 09:45:30;;;;;;;12.33;9.10;;;18.90;99.90;;;;;;5102289;28;20901;-52
2023/08/06 09:47:56;;;;;;;14.07;8.67;;;18.80;99.90;;;;;;5103921;28;20913;-51
2023/08/06 09:50:22;;;;;;;11.93;8.40;;;18.70;99.90;;;;;;5094434;28;20422;-51
2023/08/06 09:52:50;;;;;;;9.90;8.07;;;18.70;99.90;;;;;;5094133;28;20231;-52
2023/08/06 09:55:16;;;;;;;8.93;7.60;;;18.80;1.00;;;;;;5112039;28;20417;-52
2023/08/06 09:57:42;;;;;;;10.10;8.07;;;18.80;1.00;;;;;;5104709;28;20422;-53
2023/08/06 10:00:10;;;;;;;12.57;8.53;;;18.90;1.00;;;;;;5103386;28;20483;-53
2023/08/06 10:02:39;;;;;;;10.13;7.50;;;18.90;99.90;;;;;;5082749;28;20420;-53
2023/08/06 10:05:08;;;;;;;11.50;8.67;;;18.80;99.90;;;;;;5103383;28;20893;-54
2023/08/06 10:07:34;;;;;;;11.47;8.40;;;18.90;99.90;;;;;;5102679;28;20421;-53
2023/08/06 10:10:00;;;;;;;11.40;7.40;;;18.80;1.00;;;;;;5102971;28;20425;-52
2023/08/06 10:12:28;;;;;;;11.83;7.87;;;18.80;99.90;;;;;;5102201;28;20475;-53
2023/08/06 10:14:57;;;;;;;10.60;7.70;;;18.90;99.90;;;;;;5103754;28;20474;-53
2023/08/06 10:17:23;;;;;;;10.90;8.03;;;19.00;99.90;;;;;;5110384;28;20474;-52
2023/08/06 10:19:51;;;;;;;12.37;8.27;;;19.10;99.90;;;;;;5093035;28;21038;-53
2023/08/06 10:22:17;;;;;;;11.93;7.80;;;19.20;99.90;;;;;;5092077;28;20413;-53
2023/08/06 10:24:54;;;;;;;8.57;7.70;;;19.30;99.90;;;;;;5110851;28;20429;-53
2023/08/06 10:27:32;;;;;;;9.80;7.17;;;19.30;1.00;;;;;;5113125;28;20797;-53
2023/08/06 10:30:32;;;;;;;9.83;8.53;;;19.30;1.00;;;;;;5115471;28;20486;-53
2023/08/06 10:33:00;;;;;;;13.00;9.37;;;19.20;99.90;;;;;;5114567;28;21005;-53
2023/08/06 10:35:44;;;;;;;12.17;8.30;;;19.30;99.90;;;;;;5115180;28;20422;-53
2023/08/06 10:38:15;;;;;;;8.77;7.87;;;19.40;1.00;;;;;;5114483;27;20474;-53
2023/08/06 10:40:49;;;;;;;13.77;8.40;;;19.40;99.90;;;;;;5114937;28;20969;-53
2023/08/06 10:43:27;;;;;;;11.10;7.57;;;19.50;99.90;;;;;;5113712;28;20432;-52
2023/08/06 10:45:53;;;;;;;11.00;7.13;;;19.60;99.90;;;;;;5114871;28;20424;-53
2023/08/06 10:48:39;;;;;;;9.43;7.20;;;19.50;99.90;;;;;;5114902;28;20415;-53
2023/08/06 10:51:09;;;;;;;8.67;6.97;;;19.50;1.00;;;;;;5113714;28;20190;-53
2023/08/06 10:53:35;;;;;;;8.03;7.30;;;19.40;99.90;;;;;;5115161;28;20420;-53
2023/08/06 10:56:14;;;;;;;9.20;7.43;;;19.30;1.00;;;;;;5114545;28;20420;-53
2023/08/06 10:58:41;;;;;;;9.70;7.63;;;19.40;1.00;;;;;;5097324;28;20222;-53
2023/08/06 11:01:06;;;;;;;11.33;7.93;;;19.40;99.90;;;;;;5114815;28;20472;-53
2023/08/06 11:03:34;;;;;;;8.40;7.43;;;19.50;99.90;;;;;;5113910;28;20452;-53
2023/08/06 11:05:59;;;;;;;10.43;7.53;;;19.60;99.90;;;;;;5113247;28;20217;-53
2023/08/06 11:08:29;;;;;;;8.33;7.03;;;19.50;99.90;;;;;;5114646;28;20486;-53
2023/08/06 11:10:55;;;;;;;10.77;8.33;;;19.40;99.90;;;;;;5114607;28;20700;-53
2023/08/06 11:13:21;;;;;;;10.13;8.50;;;19.30;99.90;;;;;;5114332;28;20425;-53
2023/08/06 11:15:47;;;;;;;9.67;8.30;;;19.40;1.00;;;;;;5114609;28;20926;-53
2023/08/06 11:18:13;;;;;;;9.17;7.30;;;19.40;1.00;;;;;;5114480;28;20506;-53
2023/08/06 11:20:39;;;;;;;8.57;7.30;;;19.40;99.90;;;;;;5114537;28;20274;-53
2023/08/06 11:23:05;;;;;;;8.03;7.23;;;19.40;1.00;;;;;;5114835;28;20219;-53
2023/08/06 11:25:35;;;;;;;8.93;7.87;;;19.30;99.90;;;;;;5114356;28;20449;-53
2023/08/06 11:28:01;;;;;;;12.70;8.03;;;19.30;99.90;;;;;;5114376;28;20928;-53
2023/08/06 11:30:27;;;;;;;9.17;7.97;;;19.30;99.90;;;;;;5114231;28;20422;-53
2023/08/06 11:32:52;;;;;;;12.00;8.03;;;19.20;99.90;;;;;;5114108;28;20530;-52
2023/08/06 11:35:18;;;;;;;11.27;8.30;;;19.10;99.90;;;;;;5113709;28;20657;-53
2023/08/06 11:37:48;;;;;;;8.67;7.60;;;19.10;1.00;;;;;;5114010;28;20228;-53
2023/08/06 11:40:15;;;;;;;9.47;8.30;;;18.90;1.00;;;;;;5114322;28;20206;-53
2023/08/06 11:42:42;;;;;;;9.03;8.10;;;18.90;1.00;;;;;;5113962;28;20428;-51
2023/08/06 11:45:09;;;;;;;8.77;7.90;;;18.90;1.00;;;;;;5114525;28;20414;-53
2023/08/06 11:47:39;;;;;;;13.00;7.70;;;18.90;99.90;;;;;;5114287;28;20410;-53
2023/08/06 11:50:05;;;;;;;10.40;8.50;;;19.00;1.00;;;;;;5114501;28;20437;-53
2023/08/06 11:52:31;;;;;;;9.73;8.47;;;18.80;1.00;;;;;;5113735;28;20480;-53
2023/08/06 11:55:10;;;;;;;9.80;8.23;;;18.80;37.30;;;;;;5099784;28;20186;-53
2023/08/06 11:57:36;;;;;;;12.80;7.80;;;18.80;99.90;;;;;;5093712;28;20444;-53
2023/08/06 12:00:13;;;;;;;8.30;7.60;;;18.80;99.90;;;;;;5101486;28;20477;-53
2023/08/06 12:02:41;;;;;;;8.70;7.80;;;18.80;99.90;;;;;;5095324;28;20865;-53
2023/08/06 12:05:13;;;;;;;11.17;9.40;;;18.70;99.90;;;;;;5108893;28;20528;-53
2023/08/06 12:07:44;;;;;;;10.10;8.40;;;18.70;1.00;;;;;;5112791;28;20791;-54
2023/08/06 12:10:10;;;;;;;9.30;8.50;;;18.70;99.90;;;;;;5113179;28;20441;-52
2023/08/06 12:12:37;;;;;;;10.10;7.63;;;18.70;2.50;;;;;;5112953;28;21006;-53
2023/08/06 12:15:03;;;;;;;12.00;8.57;;;18.60;48.90;;;;;;5112609;28;20424;-53
2023/08/06 12:17:29;;;;;;;9.73;8.33;;;18.60;99.90;;;;;;5112407;28;20437;-53
2023/08/06 12:19:54;;;;;;;12.13;8.70;;;18.60;1.00;;;;;;5113658;28;20492;-53
2023/08/06 12:22:20;;;;;;;10.40;8.40;;;18.60;1.00;;;;;;5113574;28;20727;-53
2023/08/06 12:24:46;;;;;;;10.17;7.63;;;18.60;1.00;;;;;;5110288;28;20659;-53
2023/08/06 12:27:12;;;;;;;11.60;8.67;;;18.60;99.90;;;;;;5109250;28;20240;-51
2023/08/06 12:29:43;;;;;;;9.50;8.57;;;18.70;68.70;;;;;;5112101;28;20446;-50
2023/08/06 12:32:09;;;;;;;10.87;8.50;;;18.70;99.90;;;;;;5109901;28;20475;-50
2023/08/06 12:34:34;;;;;;;13.07;8.10;;;18.70;99.90;;;;;;5111815;28;20467;-50
2023/08/06 12:37:02;;;;;;;14.80;8.50;;;18.70;1.00;;;;;;5093995;28;20468;-50
2023/08/06 12:39:28;;;;;;;16.13;9.00;;;18.70;99.90;;;;;;5113276;28;20209;-50
2023/08/06 12:41:55;;;;;;;10.07;7.80;;;18.60;99.90;;;;;;5112216;28;20467;-51